createdAt,value
2023-04-22T00:00:30.781Z,3.03
2023-04-22T00:02:32.672Z,3.35
2023-04-22T00:04:34.870Z,3.10
2023-04-22T00:06:36.976Z,2.85
2023-04-22T00:08:38.721Z,2.90
2023-04-22T00:10:40.440Z,2.75
2023-04-22T00:12:42.158Z,3.15
2023-04-22T00:14:43.832Z,3.35
2023-04-22T00:16:45.621Z,4.45
2023-04-22T00:18:47.435Z,4.00
2023-04-22T00:20:49.239Z,3.65
2023-04-22T00:22:50.977Z,3.70
2023-04-22T00:24:52.719Z,3.70
2023-04-22T00:26:54.418Z,3.80
2023-04-22T00:28:57.286Z,3.72
2023-04-22T00:30:59.171Z,3.25
2023-04-22T00:33:01.035Z,3.00
2023-04-22T00:35:02.721Z,3.25
2023-04-22T00:37:04.443Z,3.08
2023-04-22T00:39:06.528Z,3.05
2023-04-22T00:41:08.463Z,3.03
2023-04-22T00:43:10.463Z,3.00
2023-04-22T00:45:13.201Z,3.38
2023-04-22T00:47:15.132Z,2.75
2023-04-22T00:49:17.032Z,2.75
2023-04-22T00:51:18.780Z,2.67
2023-04-22T00:53:20.540Z,2.85
2023-04-22T00:55:22.479Z,2.63
2023-04-22T00:57:24.371Z,2.55
2023-04-22T00:59:26.768Z,2.58
2023-04-22T01:01:28.636Z,2.75
2023-04-22T01:03:31.405Z,2.47
2023-04-22T01:05:33.374Z,2.63
2023-04-22T01:07:36.583Z,3.38
2023-04-22T01:09:40.064Z,2.35
2023-04-22T01:11:42.571Z,2.50
2023-04-22T01:13:44.192Z,3.30
2023-04-22T01:15:46.154Z,2.97
2023-04-22T01:17:48.150Z,2.53
2023-04-22T01:19:49.889Z,2.38
2023-04-22T01:21:52.405Z,3.05
2023-04-22T01:23:54.343Z,3.45
2023-04-22T01:25:56.567Z,2.35
2023-04-22T01:27:58.558Z,2.60
2023-04-22T01:30:00.609Z,2.88
2023-04-22T01:32:03.637Z,2.97
2023-04-22T01:34:05.845Z,2.92
2023-04-22T01:36:07.992Z,2.65
2023-04-22T01:38:11.907Z,2.70
2023-04-22T01:40:14.697Z,2.85
2023-04-22T01:42:16.458Z,2.50
2023-04-22T01:44:19.828Z,3.22
2023-04-22T01:46:21.699Z,2.80
2023-04-22T01:48:24.348Z,3.15
2023-04-22T01:50:26.029Z,3.70
2023-04-22T01:52:27.868Z,2.80
2023-04-22T01:54:29.634Z,2.63
2023-04-22T01:56:31.395Z,3.03
2023-04-22T01:58:33.664Z,3.25
2023-04-22T02:00:35.365Z,2.60
2023-04-22T02:02:37.129Z,2.70
2023-04-22T02:04:38.947Z,3.08
2023-04-22T02:06:40.879Z,2.33
2023-04-22T02:08:42.655Z,2.70
2023-04-22T02:10:44.370Z,2.47
2023-04-22T02:12:46.294Z,3.45
2023-04-22T02:14:48.086Z,2.60
2023-04-22T02:16:49.896Z,2.33
2023-04-22T02:18:51.601Z,2.92
2023-04-22T02:20:53.399Z,3.33
2023-04-22T02:22:55.128Z,3.25
2023-04-22T02:24:56.930Z,2.90
2023-04-22T02:26:58.647Z,3.28
2023-04-22T02:29:00.404Z,2.58
2023-04-22T02:31:02.215Z,2.63
2023-04-22T02:33:04.115Z,3.08
2023-04-22T02:35:06.906Z,3.55
2023-04-22T02:37:08.667Z,2.50
2023-04-22T02:39:10.588Z,2.58
2023-04-22T02:41:12.280Z,2.78
2023-04-22T02:43:14.185Z,3.30
2023-04-22T02:45:16.098Z,3.28
2023-04-22T02:47:17.852Z,3.50
2023-04-22T02:49:19.657Z,3.05
2023-04-22T02:51:21.963Z,2.22
2023-04-22T02:53:23.617Z,2.63
2023-04-22T02:55:25.272Z,2.90
2023-04-22T02:57:27.051Z,2.65
2023-04-22T02:59:28.838Z,2.90
2023-04-22T03:01:31.005Z,3.10
2023-04-22T03:03:33.064Z,2.42
2023-04-22T03:05:34.871Z,3.08
2023-04-22T03:07:36.584Z,3.60
2023-04-22T03:09:38.448Z,3.22
2023-04-22T03:11:40.334Z,3.25
2023-04-22T03:13:42.001Z,3.15
2023-04-22T03:15:43.980Z,2.45
2023-04-22T03:17:46.105Z,2.90
2023-04-22T03:19:47.990Z,2.72
2023-04-22T03:21:49.706Z,2.60
2023-04-22T03:23:51.383Z,3.10
2023-04-22T03:25:53.512Z,3.22
2023-04-22T03:27:55.291Z,3.00
2023-04-22T03:29:57.063Z,2.60
2023-04-22T03:31:58.884Z,2.80
2023-04-22T03:34:01.381Z,3.28
2023-04-22T03:36:03.184Z,2.97
2023-04-22T03:38:04.859Z,2.58
2023-04-22T03:40:07.871Z,2.92
2023-04-22T03:42:11.261Z,2.85
2023-04-22T03:44:12.996Z,4.13
2023-04-22T03:46:16.340Z,3.17
2023-04-22T03:48:18.100Z,2.97
2023-04-22T03:50:19.805Z,2.60
2023-04-22T03:52:21.458Z,3.65
2023-04-22T03:54:23.317Z,3.15
2023-04-22T03:56:25.169Z,3.40
2023-04-22T03:58:27.027Z,3.25
2023-04-22T04:00:28.784Z,2.58
2023-04-22T04:02:30.501Z,3.67
2023-04-22T04:04:32.719Z,3.20
2023-04-22T04:06:34.881Z,3.67
2023-04-22T04:08:36.576Z,3.15
2023-04-22T04:10:38.297Z,2.97
2023-04-22T04:12:39.975Z,3.17
2023-04-22T04:14:41.708Z,3.20
2023-04-22T04:16:43.937Z,3.38
2023-04-22T04:18:45.739Z,3.05
2023-04-22T04:20:47.471Z,2.97
2023-04-22T04:22:49.220Z,3.35
2023-04-22T04:24:51.246Z,3.13
2023-04-22T04:26:53.712Z,2.40
2023-04-22T04:28:55.910Z,3.03
2023-04-22T04:30:57.913Z,2.75
2023-04-22T04:32:59.664Z,2.75
2023-04-22T04:35:02.300Z,3.40
2023-04-22T04:37:04.181Z,3.28
2023-04-22T04:39:06.661Z,3.20
2023-04-22T04:41:09.828Z,2.58
2023-04-22T04:43:12.990Z,3.15
2023-04-22T04:45:19.342Z,3.95
2023-04-22T04:47:22.765Z,3.58
2023-04-22T04:49:24.548Z,3.17
2023-04-22T04:51:26.725Z,6.47
2023-04-22T04:53:28.428Z,2.80
2023-04-22T04:55:30.219Z,3.30
2023-04-22T04:57:31.992Z,3.33
2023-04-22T04:59:33.949Z,3.42
2023-04-22T05:01:35.828Z,3.63
2023-04-22T05:03:37.846Z,2.92
2023-04-22T05:05:40.099Z,2.85
2023-04-22T05:07:41.820Z,2.70
2023-04-22T05:09:43.579Z,3.20
2023-04-22T05:11:45.265Z,3.08
2023-04-22T05:13:46.939Z,2.63
2023-04-22T05:15:48.927Z,3.67
2023-04-22T05:17:50.668Z,4.32
2023-04-22T05:19:52.626Z,2.70
2023-04-22T05:21:54.405Z,2.97
2023-04-22T05:23:56.188Z,4.13
2023-04-22T05:25:58.540Z,3.38
2023-04-22T05:28:00.224Z,2.50
2023-04-22T05:30:01.944Z,3.55
2023-04-22T05:32:03.731Z,3.17
2023-04-22T05:34:05.704Z,3.53
2023-04-22T05:36:07.593Z,3.10
2023-04-22T05:38:09.374Z,3.10
2023-04-22T05:40:11.407Z,3.70
2023-04-22T05:42:13.129Z,2.85
2023-04-22T05:44:14.838Z,2.83
2023-04-22T05:46:16.542Z,2.75
2023-04-22T05:48:18.426Z,3.00
2023-04-22T05:50:21.229Z,2.58
2023-04-22T05:52:27.508Z,3.10
2023-04-22T05:54:29.579Z,2.83
2023-04-22T05:56:31.265Z,2.38
2023-04-22T05:58:33.019Z,2.58
2023-04-22T06:00:34.776Z,2.53
2023-04-22T06:02:36.589Z,2.22
2023-04-22T06:04:38.555Z,2.65
2023-04-22T06:06:40.916Z,2.40
2023-04-22T06:08:42.891Z,3.08
2023-04-22T06:10:44.586Z,2.50
2023-04-22T06:12:46.280Z,2.60
2023-04-22T06:14:47.991Z,2.75
2023-04-22T06:16:50.833Z,2.17
2023-04-22T06:18:52.546Z,2.55
2023-04-22T06:20:54.310Z,1.90
2023-04-22T06:22:56.508Z,1.90
2023-04-22T06:24:58.266Z,2.08
2023-04-22T06:27:00.181Z,2.17
2023-04-22T06:29:05.329Z,2.05
2023-04-22T06:31:07.097Z,2.08
2023-04-22T06:33:08.938Z,2.22
2023-04-22T06:35:10.840Z,2.50
2023-04-22T06:37:12.613Z,1.92
2023-04-22T06:39:14.321Z,2.65
2023-04-22T06:41:17.125Z,2.55
2023-04-22T06:43:18.834Z,2.38
2023-04-22T06:45:20.810Z,2.47
2023-04-22T06:47:22.573Z,2.05
2023-04-22T06:49:24.283Z,1.88
2023-04-22T06:51:26.026Z,2.42
2023-04-22T06:53:27.965Z,2.28
2023-04-22T06:55:29.687Z,2.20
2023-04-22T06:57:31.689Z,1.77
2023-04-22T06:59:33.649Z,2.08
2023-04-22T07:01:35.384Z,2.35
2023-04-22T07:03:37.285Z,1.83
2023-04-22T07:05:39.949Z,1.63
2023-04-22T07:07:45.313Z,1.83
2023-04-22T07:09:47.039Z,1.40
2023-04-22T07:11:48.772Z,1.63
2023-04-22T07:13:50.535Z,1.40
2023-04-22T07:15:52.295Z,1.38
2023-04-22T07:17:54.055Z,1.60
2023-04-22T07:19:56.048Z,1.27
2023-04-22T07:21:57.907Z,1.85
2023-04-22T07:23:59.693Z,1.10
2023-04-22T07:26:01.533Z,1.17
2023-04-22T07:28:03.275Z,1.30
2023-04-22T07:30:07.556Z,1.30
2023-04-22T07:32:09.819Z,1.00
2023-04-22T07:34:11.780Z,0.93
2023-04-22T07:36:13.509Z,1.10
2023-04-22T07:38:15.332Z,0.80
2023-04-22T07:40:17.408Z,0.85
2023-04-22T07:42:19.270Z,0.90
2023-04-22T07:44:21.885Z,1.00
2023-04-22T07:46:23.872Z,0.80
2023-04-22T07:48:25.631Z,0.93
2023-04-22T07:50:27.408Z,0.80
2023-04-22T07:54:58.001Z,1.20
2023-04-22T07:56:59.759Z,1.25
2023-04-22T07:59:01.588Z,0.73
2023-04-22T08:01:03.724Z,0.90
2023-04-22T08:03:05.574Z,0.90
2023-04-22T08:05:07.955Z,0.90
2023-04-22T08:07:26.884Z,0.82
2023-04-22T08:09:32.000Z,0.80
2023-04-22T08:11:33.699Z,0.85
2023-04-22T08:13:35.567Z,0.90
2023-04-22T08:15:52.620Z,0.90
2023-04-22T08:18:06.059Z,0.80
2023-04-22T08:20:08.566Z,0.80
2023-04-22T08:22:10.212Z,1.13
2023-04-22T08:24:11.925Z,0.70
2023-04-22T08:26:15.301Z,0.70
2023-04-22T08:28:17.076Z,0.90
2023-04-22T08:30:19.030Z,0.85
2023-04-22T08:32:22.501Z,0.90
2023-04-22T08:34:26.440Z,0.80
2023-04-22T08:36:30.974Z,0.80
2023-04-22T08:38:32.717Z,0.70
2023-04-22T08:40:35.312Z,0.95
2023-04-22T08:42:37.603Z,0.73
2023-04-22T08:44:39.974Z,0.70
2023-04-22T08:46:47.115Z,0.80
2023-04-22T08:48:49.206Z,1.17
2023-04-22T08:50:51.320Z,0.93
2023-04-22T08:52:53.025Z,1.33
2023-04-22T08:54:54.773Z,0.80
2023-04-22T08:56:56.940Z,0.90
2023-04-22T08:58:58.830Z,0.80
2023-04-22T09:01:25.484Z,0.90
2023-04-22T09:03:28.773Z,0.88
2023-04-22T09:05:33.893Z,0.93
2023-04-22T09:07:36.653Z,0.80
2023-04-22T09:09:39.012Z,0.82
2023-04-22T09:11:41.530Z,0.73
2023-04-22T09:13:47.385Z,0.80
2023-04-22T09:15:49.112Z,1.10
2023-04-22T09:17:54.064Z,1.10
2023-04-22T09:20:04.944Z,0.80
2023-04-22T09:22:10.709Z,0.80
2023-04-22T09:24:12.597Z,0.77
2023-04-22T09:26:15.304Z,0.90
2023-04-22T09:28:20.198Z,0.88
2023-04-22T09:30:30.391Z,0.77
2023-04-22T09:32:32.283Z,1.20
2023-04-22T09:34:34.455Z,1.27
2023-04-22T09:36:38.921Z,0.65
2023-04-22T09:38:40.677Z,0.77
2023-04-22T09:40:43.989Z,0.80
2023-04-22T09:42:53.750Z,1.27
2023-04-22T09:44:55.690Z,1.00
2023-04-22T09:46:57.423Z,0.82
2023-04-22T09:48:59.836Z,0.90
2023-04-22T09:51:01.691Z,1.00
2023-04-22T09:53:07.169Z,1.08
2023-04-22T09:55:09.705Z,0.80
2023-04-22T09:57:15.275Z,0.98
2023-04-22T09:59:22.035Z,1.08
2023-04-22T10:01:36.155Z,0.80
2023-04-22T10:03:38.100Z,0.85
2023-04-22T10:05:41.065Z,1.05
2023-04-22T10:07:43.694Z,0.93
2023-04-22T10:09:45.404Z,0.80
2023-04-22T10:11:48.339Z,0.82
2023-04-22T10:13:50.124Z,0.90
2023-04-22T10:15:55.990Z,1.10
2023-04-22T10:17:58.406Z,0.90
2023-04-22T10:20:04.758Z,1.00
2023-04-22T10:22:07.753Z,0.90
2023-04-22T10:24:15.476Z,0.73
2023-04-22T10:26:59.134Z,0.82
2023-04-22T10:29:01.039Z,0.85
2023-04-22T10:31:06.805Z,0.90
2023-04-22T10:33:21.141Z,0.93
2023-04-22T10:35:31.769Z,0.90
2023-04-22T10:37:34.077Z,1.00
2023-04-22T10:39:35.895Z,0.90
2023-04-22T10:41:38.814Z,0.80
2023-04-22T10:43:44.718Z,1.10
2023-04-22T10:45:46.403Z,0.80
2023-04-22T10:47:48.180Z,0.90
2023-04-22T10:49:51.572Z,0.90
2023-04-22T10:52:04.088Z,0.85
2023-04-22T10:54:05.824Z,1.00
2023-04-22T10:56:18.034Z,0.68
2023-04-22T10:58:21.608Z,0.68
2023-04-22T11:00:41.941Z,0.88
2023-04-22T11:03:14.228Z,0.80
2023-04-22T11:05:26.241Z,1.00
2023-04-22T11:07:34.341Z,1.20
2023-04-22T11:09:40.605Z,0.82
2023-04-22T11:11:42.572Z,0.70
2023-04-22T11:13:45.610Z,0.82
2023-04-22T11:15:49.622Z,1.10
2023-04-22T11:17:53.330Z,1.15
2023-04-22T11:19:56.516Z,0.88
2023-04-22T11:21:58.821Z,1.00
2023-04-22T11:24:06.323Z,1.00
2023-04-22T11:26:11.355Z,1.13
2023-04-22T11:28:13.173Z,0.90
2023-04-22T11:30:16.225Z,0.70
2023-04-22T11:32:17.955Z,1.02
2023-04-22T11:34:20.147Z,0.95
2023-04-22T11:36:22.591Z,0.88
2023-04-22T11:38:24.351Z,1.52
2023-04-22T11:40:54.571Z,1.10
2023-04-22T11:42:57.488Z,1.02
2023-04-22T11:44:59.546Z,0.90
2023-04-22T11:47:01.418Z,1.05
2023-04-22T11:49:16.305Z,0.93
2023-04-22T11:51:18.003Z,1.05
2023-04-22T11:53:22.104Z,1.02
2023-04-22T11:55:31.122Z,1.25
2023-04-22T11:57:36.362Z,1.05
2023-04-22T11:59:38.400Z,0.82
2023-04-22T12:01:42.182Z,1.30
2023-04-22T12:03:44.085Z,1.00
2023-04-22T12:05:57.488Z,1.20
2023-04-22T12:08:01.071Z,1.05
2023-04-22T12:10:03.761Z,0.93
2023-04-22T12:12:05.957Z,0.77
2023-04-22T12:14:07.791Z,0.90
2023-04-22T12:16:20.531Z,0.90
2023-04-22T12:18:36.337Z,1.63
2023-04-22T12:20:39.936Z,1.23
2023-04-22T12:22:41.664Z,1.05
2023-04-22T12:24:46.113Z,1.00
2023-04-22T12:26:47.799Z,1.80
2023-04-22T12:28:51.022Z,1.00
2023-04-22T12:30:52.772Z,1.23
2023-04-22T12:32:54.520Z,1.27
2023-04-22T12:34:56.339Z,1.00
2023-04-22T12:36:59.200Z,1.00
2023-04-22T12:39:01.094Z,1.02
2023-04-22T12:41:03.651Z,1.10
2023-04-22T12:43:06.269Z,1.02
2023-04-22T12:45:09.180Z,0.90
2023-04-22T12:47:11.117Z,1.10
2023-04-22T12:49:14.491Z,1.17
2023-04-22T12:51:16.366Z,0.90
2023-04-22T12:53:18.100Z,0.90
2023-04-22T12:55:21.001Z,1.10
2023-04-22T12:57:26.385Z,1.20
2023-04-22T12:59:28.639Z,1.25
2023-04-22T13:01:35.281Z,1.00
2023-04-22T13:03:37.680Z,1.05
2023-04-22T13:05:42.412Z,1.00
2023-04-22T13:07:46.936Z,1.00
2023-04-22T13:09:55.205Z,1.00
2023-04-22T13:12:00.154Z,1.10
2023-04-22T13:14:01.784Z,1.40
2023-04-22T13:16:03.518Z,0.93
2023-04-22T13:18:05.638Z,1.02
2023-04-22T13:20:09.673Z,1.05
2023-04-22T13:22:11.437Z,1.20
2023-04-22T13:24:13.097Z,1.20
2023-04-22T13:26:14.799Z,0.95
2023-04-22T13:28:16.528Z,0.95
2023-04-22T13:30:18.316Z,0.90
2023-04-22T13:32:20.185Z,1.10
2023-04-22T13:34:21.953Z,0.88
2023-04-22T13:36:23.649Z,1.02
2023-04-22T13:38:25.536Z,1.23
2023-04-22T13:40:27.496Z,1.58
2023-04-22T13:42:30.365Z,1.02
2023-04-22T13:44:32.047Z,1.38
2023-04-22T13:46:33.816Z,1.00
2023-04-22T13:48:35.602Z,0.80
2023-04-22T13:50:37.323Z,0.80
2023-04-22T13:52:39.296Z,0.90
2023-04-22T13:54:41.108Z,1.00
2023-04-22T13:56:42.784Z,0.90
2023-04-22T13:58:44.775Z,0.88
2023-04-22T14:00:46.647Z,1.00
2023-04-22T14:02:48.715Z,1.02
2023-04-22T14:04:50.580Z,0.80
2023-04-22T14:06:52.345Z,1.02
2023-04-22T14:08:54.898Z,1.10
2023-04-22T14:10:57.359Z,0.98
2023-04-22T14:12:59.222Z,0.88
2023-04-22T14:15:01.100Z,1.00
2023-04-22T14:17:03.052Z,1.10
2023-04-22T14:19:06.195Z,0.68
2023-04-22T14:21:09.606Z,1.08
2023-04-22T14:23:11.935Z,1.25
2023-04-22T14:25:13.665Z,1.17
2023-04-22T14:27:15.508Z,1.08
2023-04-22T14:29:17.198Z,0.85
2023-04-22T14:31:19.952Z,0.90
2023-04-22T14:33:25.691Z,0.70
2023-04-22T14:35:27.381Z,1.10
2023-04-22T14:37:29.577Z,1.15
2023-04-22T14:39:31.216Z,1.20
2023-04-22T14:41:33.060Z,0.85
2023-04-22T14:43:34.962Z,0.73
2023-04-22T14:45:36.669Z,1.20
2023-04-22T14:47:38.524Z,0.80
2023-04-22T14:49:40.750Z,1.00
2023-04-22T14:51:42.905Z,0.70
2023-04-22T14:53:44.827Z,1.00
2023-04-22T14:55:46.537Z,1.10
2023-04-22T14:57:50.423Z,1.15
2023-04-22T14:59:52.075Z,0.73
2023-04-22T15:01:54.151Z,1.20
2023-04-22T15:03:56.074Z,1.00
2023-04-22T15:05:58.139Z,0.93
2023-04-22T15:07:59.950Z,0.88
2023-04-22T15:10:02.009Z,0.75
2023-04-22T15:12:05.356Z,0.82
2023-04-22T15:14:07.084Z,0.80
2023-04-22T15:16:09.149Z,1.00
2023-04-22T15:18:11.698Z,0.85
2023-04-22T15:20:13.673Z,1.20
2023-04-22T15:22:29.733Z,0.70
2023-04-22T15:24:31.422Z,0.85
2023-04-22T15:26:33.504Z,0.80
2023-04-22T15:28:35.870Z,0.93
2023-04-22T15:30:37.723Z,1.13
2023-04-22T15:32:39.515Z,1.10
2023-04-22T15:34:41.258Z,1.17
2023-04-22T15:36:42.995Z,0.70
2023-04-22T15:38:44.754Z,0.90
2023-04-22T15:40:47.054Z,1.20
2023-04-22T15:42:48.710Z,1.20
2023-04-22T15:44:50.562Z,1.70
2023-04-22T15:46:52.992Z,1.90
2023-04-22T15:48:57.122Z,1.77
2023-04-22T15:50:58.832Z,1.23
2023-04-22T15:53:00.582Z,0.88
2023-04-22T15:55:07.790Z,1.40
2023-04-22T15:57:09.627Z,1.65
2023-04-22T15:59:42.974Z,1.40
2023-04-22T16:01:46.252Z,1.13
2023-04-22T16:03:49.638Z,1.15
2023-04-22T16:05:51.487Z,0.80
2023-04-22T16:07:53.686Z,0.80
2023-04-22T16:09:55.570Z,1.10
2023-04-22T16:11:57.294Z,0.90
2023-04-22T16:13:59.072Z,1.00
2023-04-22T16:16:00.857Z,1.05
2023-04-22T16:18:03.246Z,1.00
2023-04-22T16:20:06.213Z,1.00
2023-04-22T16:22:08.141Z,0.90
2023-04-22T16:24:09.872Z,0.90
2023-04-22T16:26:11.721Z,1.17
2023-04-22T16:28:14.731Z,0.98
2023-04-22T16:30:16.608Z,1.00
2023-04-22T16:32:18.266Z,0.90
2023-04-22T16:34:20.942Z,1.10
2023-04-22T16:36:22.768Z,0.98
2023-04-22T16:38:24.595Z,1.15
2023-04-22T16:40:26.433Z,1.17
2023-04-22T16:42:28.164Z,1.00
2023-04-22T16:44:29.969Z,1.00
2023-04-22T16:46:31.712Z,1.08
2023-04-22T16:48:33.484Z,0.98
2023-04-22T16:50:35.181Z,0.98
2023-04-22T16:52:36.874Z,1.20
2023-04-22T16:54:38.673Z,0.90
2023-04-22T16:56:40.472Z,1.10
2023-04-22T16:58:42.215Z,1.38
2023-04-22T17:00:45.278Z,1.10
2023-04-22T17:02:48.337Z,1.38
2023-04-22T17:04:50.157Z,1.00
2023-04-22T17:06:52.117Z,1.00
2023-04-22T17:08:54.062Z,1.33
2023-04-22T17:10:55.737Z,1.40
2023-04-22T17:12:57.500Z,1.45
2023-04-22T17:14:59.176Z,1.05
2023-04-22T17:17:00.848Z,1.60
2023-04-22T17:19:02.617Z,1.20
2023-04-22T17:21:05.040Z,1.52
2023-04-22T17:23:06.849Z,1.20
2023-04-22T17:25:09.044Z,1.50
2023-04-22T17:27:14.766Z,1.02
2023-04-22T17:29:16.454Z,1.50
2023-04-22T17:31:18.405Z,1.83
2023-04-22T17:33:20.117Z,1.10
2023-04-22T17:35:21.849Z,1.42
2023-04-22T17:37:23.576Z,1.80
2023-04-22T17:39:25.274Z,1.33
2023-04-22T17:41:27.024Z,0.93
2023-04-22T17:43:28.821Z,1.15
2023-04-22T17:45:30.657Z,1.40
2023-04-22T17:47:32.425Z,1.30
2023-04-22T17:49:34.095Z,2.10
2023-04-22T17:51:35.824Z,1.42
2023-04-22T17:53:37.690Z,1.60
2023-04-22T17:55:39.413Z,1.42
2023-04-22T17:57:42.326Z,1.33
2023-04-22T17:59:44.125Z,1.80
2023-04-22T18:01:46.105Z,1.98
2023-04-22T18:03:47.947Z,1.73
2023-04-22T18:05:49.824Z,1.55
2023-04-22T18:07:51.656Z,1.52
2023-04-22T18:09:53.360Z,1.60
2023-04-22T18:11:58.692Z,1.70
2023-04-22T18:14:00.765Z,1.77
2023-04-22T18:16:02.496Z,1.67
2023-04-22T18:18:04.626Z,2.00
2023-04-22T18:20:17.535Z,3.80
2023-04-22T18:22:20.472Z,4.75
2023-04-22T18:24:22.235Z,3.95
2023-04-22T18:26:23.921Z,4.65
2023-04-22T18:28:25.593Z,3.40
2023-04-22T18:30:27.361Z,2.20
2023-04-22T18:32:29.263Z,1.90
2023-04-22T18:34:31.481Z,2.15
2023-04-22T18:36:33.423Z,1.73
2023-04-22T18:38:35.145Z,1.77
2023-04-22T18:40:36.853Z,1.80
2023-04-22T18:42:38.724Z,2.08
2023-04-22T18:44:41.012Z,3.17
2023-04-22T18:46:43.106Z,3.17
2023-04-22T18:48:45.024Z,2.92
2023-04-22T18:50:46.783Z,1.90
2023-04-22T18:52:48.537Z,2.15
2023-04-22T18:54:50.447Z,2.17
2023-04-22T18:56:52.453Z,2.47
2023-04-22T18:58:55.297Z,2.28
2023-04-22T19:00:57.304Z,2.47
2023-04-22T19:02:59.435Z,2.40
2023-04-22T19:05:01.362Z,2.53
2023-04-22T19:07:03.335Z,2.10
2023-04-22T19:09:05.077Z,2.13
2023-04-22T19:11:06.925Z,2.45
2023-04-22T19:13:15.869Z,2.05
2023-04-22T19:15:24.532Z,2.05
2023-04-22T19:17:27.076Z,2.17
2023-04-22T19:19:28.778Z,2.35
2023-04-22T19:21:31.588Z,2.25
2023-04-22T19:23:34.473Z,2.40
2023-04-22T19:25:37.771Z,2.67
2023-04-22T19:27:39.540Z,2.13
2023-04-22T19:29:42.283Z,2.47
2023-04-22T19:31:44.315Z,2.85
2023-04-22T19:33:46.257Z,2.75
2023-04-22T19:35:47.973Z,2.47
2023-04-22T19:37:49.636Z,2.72
2023-04-22T19:39:51.443Z,1.88
2023-04-22T19:41:53.139Z,2.22
2023-04-22T19:43:57.353Z,2.80
2023-04-22T19:45:59.106Z,2.17
2023-04-22T19:48:01.363Z,2.50
2023-04-22T19:50:07.566Z,2.05
2023-04-22T19:52:14.074Z,2.42
2023-04-22T19:54:16.910Z,2.33
2023-04-22T19:56:19.067Z,2.50
2023-04-22T19:58:21.556Z,2.25
2023-04-22T20:00:24.305Z,1.92
2023-04-22T20:02:26.820Z,2.78
2023-04-22T20:04:28.919Z,2.45
2023-04-22T20:06:31.716Z,2.60
2023-04-22T20:08:34.161Z,2.47
2023-04-22T20:10:36.876Z,1.98
2023-04-22T20:12:38.775Z,2.65
2023-04-22T20:14:40.969Z,2.03
2023-04-22T20:16:43.051Z,2.50
2023-04-22T20:18:46.537Z,2.47
2023-04-22T20:20:48.997Z,2.90
2023-04-22T20:22:52.876Z,2.30
2023-04-22T20:25:02.449Z,2.35
2023-04-22T20:27:04.434Z,2.20
2023-04-22T20:29:08.254Z,3.65
2023-04-22T20:31:10.168Z,3.58
2023-04-22T20:33:15.909Z,3.30
2023-04-22T20:35:19.279Z,2.53
2023-04-22T20:37:22.168Z,2.28
2023-04-22T20:39:24.275Z,2.60
2023-04-22T20:41:27.061Z,2.15
2023-04-22T20:43:28.737Z,2.50
2023-04-22T20:45:30.637Z,2.55
2023-04-22T20:47:32.671Z,2.05
2023-04-22T20:49:34.700Z,2.50
2023-04-22T20:51:36.373Z,2.85
2023-04-22T20:53:38.398Z,2.50
2023-04-22T20:55:40.535Z,2.00
2023-04-22T20:57:42.457Z,2.55
2023-04-22T20:59:44.125Z,2.35
2023-04-22T21:01:47.559Z,2.45
2023-04-22T21:03:54.894Z,2.15
2023-04-22T21:05:57.131Z,2.30
2023-04-22T21:08:00.817Z,2.40
2023-04-22T21:10:02.775Z,1.88
2023-04-22T21:12:05.056Z,2.72
2023-04-22T21:14:06.996Z,2.70
2023-04-22T21:16:10.502Z,2.78
2023-04-22T21:18:12.664Z,2.50
2023-04-22T21:20:14.528Z,2.22
2023-04-22T21:22:20.751Z,3.03
2023-04-22T21:24:22.632Z,2.15
2023-04-22T21:26:24.362Z,2.72
2023-04-22T21:28:26.530Z,2.55
2023-04-22T21:30:28.650Z,2.35
2023-04-22T21:32:30.508Z,2.78
2023-04-22T21:34:32.196Z,1.95
2023-04-22T21:36:33.985Z,2.00
2023-04-22T21:38:35.742Z,2.40
2023-04-22T21:40:37.623Z,3.50
2023-04-22T21:42:39.473Z,2.80
2023-04-22T21:44:44.696Z,2.85
2023-04-22T21:46:46.533Z,2.85
2023-04-22T21:48:48.629Z,2.20
2023-04-22T21:50:51.652Z,2.45
2023-04-22T21:52:53.669Z,2.65
2023-04-22T21:54:55.431Z,2.63
2023-04-22T21:56:57.741Z,2.47
2023-04-22T21:59:00.146Z,2.22
2023-04-22T22:01:01.840Z,1.70
2023-04-22T22:03:03.703Z,3.03
2023-04-22T22:05:06.012Z,2.20
2023-04-22T22:07:07.789Z,2.42
2023-04-22T22:09:09.643Z,2.60
2023-04-22T22:11:20.249Z,2.00
2023-04-22T22:13:34.042Z,2.70
2023-04-22T22:15:36.500Z,2.42
2023-04-22T22:17:40.370Z,3.13
2023-04-22T22:19:42.142Z,2.75
2023-04-22T22:21:43.899Z,2.60
2023-04-22T22:23:45.596Z,2.90
2023-04-22T22:25:48.452Z,3.17
2023-04-22T22:27:50.316Z,2.65
2023-04-22T22:29:52.103Z,3.92
2023-04-22T22:31:53.950Z,2.90
2023-04-22T22:33:55.680Z,2.92
2023-04-22T22:35:57.505Z,3.15
2023-04-22T22:37:59.243Z,2.95
2023-04-22T22:40:01.315Z,3.25
2023-04-22T22:42:03.098Z,3.00
2023-04-22T22:44:04.802Z,2.88
2023-04-22T22:46:06.571Z,2.83
2023-04-22T22:48:08.612Z,2.67
2023-04-22T22:50:11.562Z,3.42
2023-04-22T22:52:13.871Z,2.92
2023-04-22T22:54:15.700Z,2.75
2023-04-22T22:56:20.874Z,3.33
2023-04-22T22:58:22.618Z,2.60
2023-04-22T23:00:24.291Z,2.38
2023-04-22T23:02:26.475Z,2.85
2023-04-22T23:04:28.522Z,3.33
2023-04-22T23:06:31.961Z,3.65
2023-04-22T23:08:33.688Z,3.10
2023-04-22T23:10:35.360Z,3.05
2023-04-22T23:12:37.196Z,4.90
2023-04-22T23:14:39.229Z,3.15
2023-04-22T23:16:41.235Z,2.95
2023-04-22T23:18:43.734Z,3.80
2023-04-22T23:20:47.187Z,4.20
2023-04-22T23:22:50.435Z,3.28
2023-04-22T23:24:52.443Z,2.97
2023-04-22T23:26:54.441Z,4.30
2023-04-22T23:28:56.970Z,3.70
2023-04-22T23:30:58.779Z,3.67
2023-04-22T23:33:03.563Z,4.10
2023-04-22T23:35:06.001Z,3.40
2023-04-22T23:37:08.391Z,4.43
2023-04-22T23:39:10.090Z,3.78
2023-04-22T23:41:11.797Z,3.08
2023-04-22T23:43:13.608Z,3.30
2023-04-22T23:45:15.388Z,3.55
2023-04-22T23:47:17.517Z,3.08
2023-04-22T23:49:19.542Z,2.92
2023-04-22T23:51:21.263Z,3.17
2023-04-22T23:53:22.994Z,3.38
2023-04-22T23:55:25.551Z,3.80
2023-04-22T23:57:27.508Z,2.85
2023-04-22T23:59:29.531Z,3.25
